sensor_id;sensor_type;location;lat;lon;timestamp;P1;durP1;ratioP1;P2;durP2;ratioP2
16254;SDS011;8235;52.198;9.904;2022-09-17T00:01:13;1.63;;;0.47;;
16254;SDS011;8235;52.198;9.904;2022-09-17T00:03:41;2.50;;;0.83;;
16254;SDS011;8235;52.198;9.904;2022-09-17T00:06:09;2.70;;;0.57;;
16254;SDS011;8235;52.198;9.904;2022-09-17T00:08:38;1.83;;;0.50;;
16254;SDS011;8235;52.198;9.904;2022-09-17T00:11:05;0.93;;;0.43;;
16254;SDS011;8235;52.198;9.904;2022-09-17T00:13:34;4.30;;;1.00;;
16254;SDS011;8235;52.198;9.904;2022-09-17T00:16:01;2.03;;;0.60;;
16254;SDS011;8235;52.198;9.904;2022-09-17T00:18:28;1.30;;;0.53;;
16254;SDS011;8235;52.198;9.904;2022-09-17T00:20:55;4.83;;;0.93;;
16254;SDS011;8235;52.198;9.904;2022-09-17T00:23:21;6.70;;;1.20;;
16254;SDS011;8235;52.198;9.904;2022-09-17T00:25:48;4.37;;;1.37;;
16254;SDS011;8235;52.198;9.904;2022-09-17T00:28:14;5.47;;;1.50;;
16254;SDS011;8235;52.198;9.904;2022-09-17T00:30:43;9.50;;;1.87;;
16254;SDS011;8235;52.198;9.904;2022-09-17T00:33:10;8.17;;;1.40;;
16254;SDS011;8235;52.198;9.904;2022-09-17T00:35:38;4.70;;;1.70;;
16254;SDS011;8235;52.198;9.904;2022-09-17T00:38:04;8.93;;;2.17;;
16254;SDS011;8235;52.198;9.904;2022-09-17T00:40:31;5.20;;;1.57;;
16254;SDS011;8235;52.198;9.904;2022-09-17T00:42:57;8.10;;;2.10;;
16254;SDS011;8235;52.198;9.904;2022-09-17T00:45:24;4.90;;;1.60;;
16254;SDS011;8235;52.198;9.904;2022-09-17T00:47:56;7.57;;;2.27;;
16254;SDS011;8235;52.198;9.904;2022-09-17T00:50:25;8.63;;;1.90;;
16254;SDS011;8235;52.198;9.904;2022-09-17T00:52:55;6.07;;;2.00;;
16254;SDS011;8235;52.198;9.904;2022-09-17T00:55:25;7.17;;;1.90;;
16254;SDS011;8235;52.198;9.904;2022-09-17T00:57:56;8.13;;;1.33;;
16254;SDS011;8235;52.198;9.904;2022-09-17T01:00:24;11.10;;;2.20;;
16254;SDS011;8235;52.198;9.904;2022-09-17T01:02:51;7.87;;;2.20;;
16254;SDS011;8235;52.198;9.904;2022-09-17T01:05:22;8.27;;;2.17;;
16254;SDS011;8235;52.198;9.904;2022-09-17T01:08:07;8.43;;;1.20;;
16254;SDS011;8235;52.198;9.904;2022-09-17T01:10:45;7.37;;;1.60;;
16254;SDS011;8235;52.198;9.904;2022-09-17T01:13:24;9.47;;;2.47;;
16254;SDS011;8235;52.198;9.904;2022-09-17T01:16:02;9.10;;;1.77;;
16254;SDS011;8235;52.198;9.904;2022-09-17T01:18:41;9.23;;;2.03;;
16254;SDS011;8235;52.198;9.904;2022-09-17T01:21:26;10.17;;;1.87;;
16254;SDS011;8235;52.198;9.904;2022-09-17T01:30:16;9.20;;;1.90;;
16254;SDS011;8235;52.198;9.904;2022-09-17T01:32:50;12.97;;;1.97;;
16254;SDS011;8235;52.198;9.904;2022-09-17T01:35:24;7.53;;;1.87;;
16254;SDS011;8235;52.198;9.904;2022-09-17T01:38:00;6.73;;;2.13;;
16254;SDS011;8235;52.198;9.904;2022-09-17T01:40:32;6.67;;;1.63;;
16254;SDS011;8235;52.198;9.904;2022-09-17T01:43:05;7.57;;;1.50;;
16254;SDS011;8235;52.198;9.904;2022-09-17T01:45:35;8.17;;;1.77;;
16254;SDS011;8235;52.198;9.904;2022-09-17T01:48:08;11.17;;;2.13;;
16254;SDS011;8235;52.198;9.904;2022-09-17T01:50:39;7.73;;;1.90;;
16254;SDS011;8235;52.198;9.904;2022-09-17T01:53:11;7.57;;;1.77;;
16254;SDS011;8235;52.198;9.904;2022-09-17T01:55:40;6.80;;;1.27;;
16254;SDS011;8235;52.198;9.904;2022-09-17T01:58:11;6.83;;;1.37;;
16254;SDS011;8235;52.198;9.904;2022-09-17T02:00:41;9.93;;;1.83;;
16254;SDS011;8235;52.198;9.904;2022-09-17T02:03:15;9.63;;;1.70;;
16254;SDS011;8235;52.198;9.904;2022-09-17T02:05:47;9.67;;;1.70;;
16254;SDS011;8235;52.198;9.904;2022-09-17T02:08:19;4.63;;;1.47;;
16254;SDS011;8235;52.198;9.904;2022-09-17T02:10:49;6.37;;;1.90;;
16254;SDS011;8235;52.198;9.904;2022-09-17T02:13:22;10.47;;;2.27;;
16254;SDS011;8235;52.198;9.904;2022-09-17T02:15:54;9.43;;;2.30;;
16254;SDS011;8235;52.198;9.904;2022-09-17T02:18:27;9.20;;;2.20;;
16254;SDS011;8235;52.198;9.904;2022-09-17T02:21:01;7.77;;;1.63;;
16254;SDS011;8235;52.198;9.904;2022-09-17T02:23:33;6.97;;;1.77;;
16254;SDS011;8235;52.198;9.904;2022-09-17T02:26:08;9.70;;;1.97;;
16254;SDS011;8235;52.198;9.904;2022-09-17T02:28:39;5.33;;;1.40;;
16254;SDS011;8235;52.198;9.904;2022-09-17T02:31:10;9.43;;;1.80;;
16254;SDS011;8235;52.198;9.904;2022-09-17T02:33:39;6.57;;;1.73;;
16254;SDS011;8235;52.198;9.904;2022-09-17T02:36:07;8.83;;;1.70;;
16254;SDS011;8235;52.198;9.904;2022-09-17T02:38:34;9.03;;;2.03;;
16254;SDS011;8235;52.198;9.904;2022-09-17T02:41:04;5.93;;;1.20;;
16254;SDS011;8235;52.198;9.904;2022-09-17T02:43:40;11.73;;;1.80;;
16254;SDS011;8235;52.198;9.904;2022-09-17T02:46:20;13.40;;;2.40;;
16254;SDS011;8235;52.198;9.904;2022-09-17T02:49:13;15.43;;;2.43;;
16254;SDS011;8235;52.198;9.904;2022-09-17T02:51:51;8.77;;;1.83;;
16254;SDS011;8235;52.198;9.904;2022-09-17T02:54:24;10.77;;;2.47;;
16254;SDS011;8235;52.198;9.904;2022-09-17T02:56:56;16.87;;;2.27;;
16254;SDS011;8235;52.198;9.904;2022-09-17T02:59:34;8.63;;;1.60;;
16254;SDS011;8235;52.198;9.904;2022-09-17T03:02:08;9.97;;;1.90;;
16254;SDS011;8235;52.198;9.904;2022-09-17T03:04:43;15.57;;;2.40;;
16254;SDS011;8235;52.198;9.904;2022-09-17T03:07:13;13.50;;;2.67;;
16254;SDS011;8235;52.198;9.904;2022-09-17T03:09:41;8.30;;;1.93;;
16254;SDS011;8235;52.198;9.904;2022-09-17T03:12:08;7.87;;;1.97;;
16254;SDS011;8235;52.198;9.904;2022-09-17T03:14:35;6.00;;;1.93;;
16254;SDS011;8235;52.198;9.904;2022-09-17T03:17:01;13.87;;;2.63;;
16254;SDS011;8235;52.198;9.904;2022-09-17T03:19:28;14.83;;;2.57;;
16254;SDS011;8235;52.198;9.904;2022-09-17T03:21:56;9.87;;;2.37;;
16254;SDS011;8235;52.198;9.904;2022-09-17T03:24:23;12.00;;;2.30;;
16254;SDS011;8235;52.198;9.904;2022-09-17T03:26:49;9.50;;;1.93;;
16254;SDS011;8235;52.198;9.904;2022-09-17T03:29:16;9.90;;;2.50;;
16254;SDS011;8235;52.198;9.904;2022-09-17T03:31:42;13.40;;;2.07;;
16254;SDS011;8235;52.198;9.904;2022-09-17T03:34:09;8.90;;;2.17;;
16254;SDS011;8235;52.198;9.904;2022-09-17T03:36:35;10.67;;;2.20;;
16254;SDS011;8235;52.198;9.904;2022-09-17T03:39:03;9.77;;;2.17;;
16254;SDS011;8235;52.198;9.904;2022-09-17T03:41:30;9.80;;;1.83;;
16254;SDS011;8235;52.198;9.904;2022-09-17T03:43:56;11.17;;;2.57;;
16254;SDS011;8235;52.198;9.904;2022-09-17T03:46:23;11.27;;;2.80;;
16254;SDS011;8235;52.198;9.904;2022-09-17T03:48:49;9.73;;;2.43;;
16254;SDS011;8235;52.198;9.904;2022-09-17T03:51:16;8.63;;;2.13;;
16254;SDS011;8235;52.198;9.904;2022-09-17T03:53:42;12.30;;;1.70;;
16254;SDS011;8235;52.198;9.904;2022-09-17T03:56:10;15.90;;;2.93;;
16254;SDS011;8235;52.198;9.904;2022-09-17T03:58:37;12.97;;;2.03;;
16254;SDS011;8235;52.198;9.904;2022-09-17T04:01:03;8.07;;;1.93;;
16254;SDS011;8235;52.198;9.904;2022-09-17T04:03:30;9.97;;;1.83;;
16254;SDS011;8235;52.198;9.904;2022-09-17T04:05:57;9.87;;;2.20;;
16254;SDS011;8235;52.198;9.904;2022-09-17T04:08:23;8.60;;;1.60;;
16254;SDS011;8235;52.198;9.904;2022-09-17T04:10:50;12.10;;;2.53;;
16254;SDS011;8235;52.198;9.904;2022-09-17T04:13:18;11.57;;;1.87;;
16254;SDS011;8235;52.198;9.904;2022-09-17T04:15:45;11.17;;;1.97;;
16254;SDS011;8235;52.198;9.904;2022-09-17T04:18:13;10.07;;;2.20;;
16254;SDS011;8235;52.198;9.904;2022-09-17T04:20:40;9.90;;;2.00;;
16254;SDS011;8235;52.198;9.904;2022-09-17T04:23:07;9.00;;;2.27;;
16254;SDS011;8235;52.198;9.904;2022-09-17T04:25:36;9.37;;;2.17;;
16254;SDS011;8235;52.198;9.904;2022-09-17T04:28:02;9.60;;;2.10;;
16254;SDS011;8235;52.198;9.904;2022-09-17T04:30:30;11.10;;;2.70;;
16254;SDS011;8235;52.198;9.904;2022-09-17T04:32:57;14.93;;;1.97;;
16254;SDS011;8235;52.198;9.904;2022-09-17T04:35:23;10.00;;;2.07;;
16254;SDS011;8235;52.198;9.904;2022-09-17T04:37:53;7.37;;;1.73;;
16254;SDS011;8235;52.198;9.904;2022-09-17T04:40:20;12.30;;;3.10;;
16254;SDS011;8235;52.198;9.904;2022-09-17T04:42:47;9.57;;;2.67;;
16254;SDS011;8235;52.198;9.904;2022-09-17T04:45:17;10.07;;;2.20;;
16254;SDS011;8235;52.198;9.904;2022-09-17T04:47:45;11.27;;;2.03;;
16254;SDS011;8235;52.198;9.904;2022-09-17T04:50:11;7.90;;;2.07;;
16254;SDS011;8235;52.198;9.904;2022-09-17T04:52:40;6.80;;;1.60;;
16254;SDS011;8235;52.198;9.904;2022-09-17T04:55:07;9.07;;;1.87;;
16254;SDS011;8235;52.198;9.904;2022-09-17T04:57:34;8.23;;;2.13;;
16254;SDS011;8235;52.198;9.904;2022-09-17T05:00:01;10.80;;;1.77;;
16254;SDS011;8235;52.198;9.904;2022-09-17T05:02:27;8.53;;;2.30;;
16254;SDS011;8235;52.198;9.904;2022-09-17T05:04:55;15.13;;;2.40;;
16254;SDS011;8235;52.198;9.904;2022-09-17T05:07:22;10.23;;;2.53;;
16254;SDS011;8235;52.198;9.904;2022-09-17T05:09:48;9.53;;;2.43;;
16254;SDS011;8235;52.198;9.904;2022-09-17T05:12:15;10.27;;;2.13;;
16254;SDS011;8235;52.198;9.904;2022-09-17T05:14:41;13.77;;;3.10;;
16254;SDS011;8235;52.198;9.904;2022-09-17T05:17:08;15.43;;;2.70;;
16254;SDS011;8235;52.198;9.904;2022-09-17T05:19:34;14.27;;;2.77;;
16254;SDS011;8235;52.198;9.904;2022-09-17T05:22:02;12.77;;;2.07;;
16254;SDS011;8235;52.198;9.904;2022-09-17T05:24:28;14.47;;;3.07;;
16254;SDS011;8235;52.198;9.904;2022-09-17T05:26:55;12.43;;;2.30;;
16254;SDS011;8235;52.198;9.904;2022-09-17T05:29:21;16.63;;;2.53;;
16254;SDS011;8235;52.198;9.904;2022-09-17T05:31:48;14.20;;;2.33;;
16254;SDS011;8235;52.198;9.904;2022-09-17T05:34:14;11.17;;;2.43;;
16254;SDS011;8235;52.198;9.904;2022-09-17T05:36:41;12.17;;;2.30;;
16254;SDS011;8235;52.198;9.904;2022-09-17T05:39:09;8.27;;;2.27;;
16254;SDS011;8235;52.198;9.904;2022-09-17T05:41:35;9.97;;;2.30;;
16254;SDS011;8235;52.198;9.904;2022-09-17T05:44:02;12.97;;;2.00;;
16254;SDS011;8235;52.198;9.904;2022-09-17T05:46:28;15.07;;;1.93;;
16254;SDS011;8235;52.198;9.904;2022-09-17T05:48:55;8.87;;;2.37;;
16254;SDS011;8235;52.198;9.904;2022-09-17T05:51:21;10.43;;;1.70;;
16254;SDS011;8235;52.198;9.904;2022-09-17T05:53:48;9.33;;;1.70;;
16254;SDS011;8235;52.198;9.904;2022-09-17T05:56:16;10.50;;;2.00;;
16254;SDS011;8235;52.198;9.904;2022-09-17T05:58:43;11.00;;;2.30;;
16254;SDS011;8235;52.198;9.904;2022-09-17T06:01:09;8.77;;;2.00;;
16254;SDS011;8235;52.198;9.904;2022-09-17T06:03:40;14.60;;;2.10;;
16254;SDS011;8235;52.198;9.904;2022-09-17T06:06:06;5.87;;;1.70;;
16254;SDS011;8235;52.198;9.904;2022-09-17T06:08:33;10.40;;;2.00;;
16254;SDS011;8235;52.198;9.904;2022-09-17T06:11:02;9.53;;;1.80;;
16254;SDS011;8235;52.198;9.904;2022-09-17T06:13:31;8.37;;;2.03;;
16254;SDS011;8235;52.198;9.904;2022-09-17T06:15:58;10.30;;;2.10;;
16254;SDS011;8235;52.198;9.904;2022-09-17T06:18:25;9.40;;;2.00;;
16254;SDS011;8235;52.198;9.904;2022-09-17T06:20:52;7.90;;;1.60;;
16254;SDS011;8235;52.198;9.904;2022-09-17T06:23:20;14.33;;;2.33;;
16254;SDS011;8235;52.198;9.904;2022-09-17T06:25:49;11.00;;;1.67;;
16254;SDS011;8235;52.198;9.904;2022-09-17T06:28:16;13.70;;;2.83;;
16254;SDS011;8235;52.198;9.904;2022-09-17T06:30:44;6.73;;;1.80;;
16254;SDS011;8235;52.198;9.904;2022-09-17T06:33:11;7.47;;;2.03;;
16254;SDS011;8235;52.198;9.904;2022-09-17T06:35:38;10.80;;;1.70;;
16254;SDS011;8235;52.198;9.904;2022-09-17T06:38:04;8.53;;;2.30;;
16254;SDS011;8235;52.198;9.904;2022-09-17T06:40:32;9.97;;;2.37;;
16254;SDS011;8235;52.198;9.904;2022-09-17T06:42:58;8.10;;;1.97;;
16254;SDS011;8235;52.198;9.904;2022-09-17T06:45:25;8.97;;;2.10;;
16254;SDS011;8235;52.198;9.904;2022-09-17T06:47:53;11.03;;;2.50;;
16254;SDS011;8235;52.198;9.904;2022-09-17T06:50:20;10.20;;;2.20;;
16254;SDS011;8235;52.198;9.904;2022-09-17T06:52:47;7.03;;;2.50;;
16254;SDS011;8235;52.198;9.904;2022-09-17T06:55:14;9.70;;;1.70;;
16254;SDS011;8235;52.198;9.904;2022-09-17T06:57:41;5.90;;;1.37;;
16254;SDS011;8235;52.198;9.904;2022-09-17T07:00:08;8.77;;;1.70;;
16254;SDS011;8235;52.198;9.904;2022-09-17T07:02:36;10.07;;;2.27;;
16254;SDS011;8235;52.198;9.904;2022-09-17T07:05:04;11.00;;;2.00;;
16254;SDS011;8235;52.198;9.904;2022-09-17T07:07:31;10.80;;;2.13;;
16254;SDS011;8235;52.198;9.904;2022-09-17T07:09:59;8.80;;;2.10;;
16254;SDS011;8235;52.198;9.904;2022-09-17T07:12:26;9.93;;;1.83;;
16254;SDS011;8235;52.198;9.904;2022-09-17T07:14:52;9.03;;;1.77;;
16254;SDS011;8235;52.198;9.904;2022-09-17T07:17:19;9.90;;;1.80;;
16254;SDS011;8235;52.198;9.904;2022-09-17T07:19:45;11.57;;;2.13;;
16254;SDS011;8235;52.198;9.904;2022-09-17T07:22:13;8.07;;;1.70;;
16254;SDS011;8235;52.198;9.904;2022-09-17T07:24:40;15.77;;;2.47;;
16254;SDS011;8235;52.198;9.904;2022-09-17T07:27:06;6.13;;;2.20;;
16254;SDS011;8235;52.198;9.904;2022-09-17T07:29:33;8.43;;;2.30;;
16254;SDS011;8235;52.198;9.904;2022-09-17T07:31:59;12.23;;;2.30;;
16254;SDS011;8235;52.198;9.904;2022-09-17T07:34:26;12.10;;;2.37;;
16254;SDS011;8235;52.198;9.904;2022-09-17T07:36:53;6.47;;;1.70;;
16254;SDS011;8235;52.198;9.904;2022-09-17T07:39:20;10.60;;;2.13;;
16254;SDS011;8235;52.198;9.904;2022-09-17T07:41:47;10.77;;;2.40;;
16254;SDS011;8235;52.198;9.904;2022-09-17T07:44:13;7.70;;;2.33;;
16254;SDS011;8235;52.198;9.904;2022-09-17T07:46:40;9.87;;;2.00;;
16254;SDS011;8235;52.198;9.904;2022-09-17T07:49:06;11.57;;;1.80;;
16254;SDS011;8235;52.198;9.904;2022-09-17T07:51:33;7.50;;;1.80;;
16254;SDS011;8235;52.198;9.904;2022-09-17T07:53:59;7.03;;;1.60;;
16254;SDS011;8235;52.198;9.904;2022-09-17T07:56:27;9.10;;;2.63;;
16254;SDS011;8235;52.198;9.904;2022-09-17T07:58:54;10.87;;;1.80;;
16254;SDS011;8235;52.198;9.904;2022-09-17T08:01:20;9.00;;;1.90;;
16254;SDS011;8235;52.198;9.904;2022-09-17T08:03:47;7.10;;;1.90;;
16254;SDS011;8235;52.198;9.904;2022-09-17T08:06:16;9.47;;;2.10;;
16254;SDS011;8235;52.198;9.904;2022-09-17T08:08:44;12.97;;;1.87;;
16254;SDS011;8235;52.198;9.904;2022-09-17T08:11:12;9.07;;;1.70;;
16254;SDS011;8235;52.198;9.904;2022-09-17T08:13:41;8.60;;;1.47;;
16254;SDS011;8235;52.198;9.904;2022-09-17T08:16:09;6.87;;;1.60;;
16254;SDS011;8235;52.198;9.904;2022-09-17T08:18:37;11.47;;;1.93;;
16254;SDS011;8235;52.198;9.904;2022-09-17T08:21:04;9.70;;;2.47;;
16254;SDS011;8235;52.198;9.904;2022-09-17T08:23:33;6.57;;;1.60;;
16254;SDS011;8235;52.198;9.904;2022-09-17T08:26:00;8.60;;;2.17;;
16254;SDS011;8235;52.198;9.904;2022-09-17T08:28:28;10.10;;;1.83;;
16254;SDS011;8235;52.198;9.904;2022-09-17T08:31:00;6.47;;;1.63;;
16254;SDS011;8235;52.198;9.904;2022-09-17T08:33:29;13.23;;;1.97;;
16254;SDS011;8235;52.198;9.904;2022-09-17T08:35:56;5.83;;;1.60;;
16254;SDS011;8235;52.198;9.904;2022-09-17T08:38:23;7.67;;;1.77;;
16254;SDS011;8235;52.198;9.904;2022-09-17T08:40:53;9.57;;;2.00;;
16254;SDS011;8235;52.198;9.904;2022-09-17T08:43:29;6.83;;;1.40;;
16254;SDS011;8235;52.198;9.904;2022-09-17T08:45:59;8.17;;;1.60;;
16254;SDS011;8235;52.198;9.904;2022-09-17T08:48:27;10.20;;;1.83;;
16254;SDS011;8235;52.198;9.904;2022-09-17T08:51:01;8.97;;;1.90;;
16254;SDS011;8235;52.198;9.904;2022-09-17T08:53:40;10.83;;;1.60;;
16254;SDS011;8235;52.198;9.904;2022-09-17T08:56:18;12.43;;;2.20;;
16254;SDS011;8235;52.198;9.904;2022-09-17T08:58:53;6.67;;;1.20;;
16254;SDS011;8235;52.198;9.904;2022-09-17T09:01:31;7.63;;;1.87;;
16254;SDS011;8235;52.198;9.904;2022-09-17T09:06:59;8.03;;;1.57;;
16254;SDS011;8235;52.198;9.904;2022-09-17T09:09:30;7.73;;;1.70;;
16254;SDS011;8235;52.198;9.904;2022-09-17T09:12:03;6.97;;;1.77;;
16254;SDS011;8235;52.198;9.904;2022-09-17T09:14:33;8.57;;;1.50;;
16254;SDS011;8235;52.198;9.904;2022-09-17T09:17:07;5.90;;;1.77;;
16254;SDS011;8235;52.198;9.904;2022-09-17T09:19:38;7.80;;;2.47;;
16254;SDS011;8235;52.198;9.904;2022-09-17T09:22:12;7.33;;;1.50;;
16254;SDS011;8235;52.198;9.904;2022-09-17T09:24:48;7.30;;;1.70;;
16254;SDS011;8235;52.198;9.904;2022-09-17T09:27:26;10.50;;;1.60;;
16254;SDS011;8235;52.198;9.904;2022-09-17T09:29:56;10.20;;;2.33;;
16254;SDS011;8235;52.198;9.904;2022-09-17T09:32:39;6.20;;;1.77;;
16254;SDS011;8235;52.198;9.904;2022-09-17T09:35:17;7.60;;;1.93;;
16254;SDS011;8235;52.198;9.904;2022-09-17T09:37:47;13.67;;;2.13;;
16254;SDS011;8235;52.198;9.904;2022-09-17T09:40:22;7.83;;;2.10;;
16254;SDS011;8235;52.198;9.904;2022-09-17T09:42:58;10.73;;;1.93;;
16254;SDS011;8235;52.198;9.904;2022-09-17T09:45:32;6.87;;;1.50;;
16254;SDS011;8235;52.198;9.904;2022-09-17T09:48:12;10.03;;;1.40;;
16254;SDS011;8235;52.198;9.904;2022-09-17T09:50:54;10.87;;;1.93;;
16254;SDS011;8235;52.198;9.904;2022-09-17T09:53:35;6.13;;;1.20;;
16254;SDS011;8235;52.198;9.904;2022-09-17T09:56:17;6.93;;;1.63;;
16254;SDS011;8235;52.198;9.904;2022-09-17T09:58:58;7.90;;;2.03;;
16254;SDS011;8235;52.198;9.904;2022-09-17T10:01:26;6.43;;;1.43;;
16254;SDS011;8235;52.198;9.904;2022-09-17T10:03:55;7.27;;;1.90;;
16254;SDS011;8235;52.198;9.904;2022-09-17T10:06:23;4.63;;;1.27;;
16254;SDS011;8235;52.198;9.904;2022-09-17T10:11:36;5.17;;;1.33;;
16254;SDS011;8235;52.198;9.904;2022-09-17T10:14:13;6.10;;;1.30;;
16254;SDS011;8235;52.198;9.904;2022-09-17T10:16:41;7.43;;;1.80;;
16254;SDS011;8235;52.198;9.904;2022-09-17T10:19:12;6.63;;;1.40;;
16254;SDS011;8235;52.198;9.904;2022-09-17T10:21:43;8.10;;;1.27;;
16254;SDS011;8235;52.198;9.904;2022-09-17T10:24:20;5.33;;;1.20;;
16254;SDS011;8235;52.198;9.904;2022-09-17T10:26:48;7.57;;;1.97;;
16254;SDS011;8235;52.198;9.904;2022-09-17T10:29:17;8.17;;;1.50;;
16254;SDS011;8235;52.198;9.904;2022-09-17T10:31:45;5.83;;;2.10;;
16254;SDS011;8235;52.198;9.904;2022-09-17T10:34:19;5.90;;;1.50;;
16254;SDS011;8235;52.198;9.904;2022-09-17T10:36:47;4.57;;;1.13;;
16254;SDS011;8235;52.198;9.904;2022-09-17T10:39:30;6.67;;;1.20;;
16254;SDS011;8235;52.198;9.904;2022-09-17T10:42:01;5.80;;;1.20;;
16254;SDS011;8235;52.198;9.904;2022-09-17T10:44:29;9.20;;;1.53;;
16254;SDS011;8235;52.198;9.904;2022-09-17T10:47:00;5.27;;;1.47;;
16254;SDS011;8235;52.198;9.904;2022-09-17T10:49:35;6.50;;;1.50;;
16254;SDS011;8235;52.198;9.904;2022-09-17T10:52:05;6.77;;;1.63;;
16254;SDS011;8235;52.198;9.904;2022-09-17T10:58:01;6.63;;;1.23;;
16254;SDS011;8235;52.198;9.904;2022-09-17T11:00:37;8.20;;;1.63;;
16254;SDS011;8235;52.198;9.904;2022-09-17T11:03:18;9.33;;;1.57;;
16254;SDS011;8235;52.198;9.904;2022-09-17T11:06:09;5.33;;;1.20;;
16254;SDS011;8235;52.198;9.904;2022-09-17T11:08:55;7.27;;;1.37;;
16254;SDS011;8235;52.198;9.904;2022-09-17T11:11:35;4.20;;;1.27;;
16254;SDS011;8235;52.198;9.904;2022-09-17T11:14:14;5.07;;;1.13;;
16254;SDS011;8235;52.198;9.904;2022-09-17T11:17:01;6.27;;;1.07;;
16254;SDS011;8235;52.198;9.904;2022-09-17T11:19:35;5.03;;;0.77;;
16254;SDS011;8235;52.198;9.904;2022-09-17T11:22:14;4.20;;;1.00;;
16254;SDS011;8235;52.198;9.904;2022-09-17T11:24:51;7.00;;;1.33;;
16254;SDS011;8235;52.198;9.904;2022-09-17T11:27:33;6.33;;;1.47;;
16254;SDS011;8235;52.198;9.904;2022-09-17T11:30:13;8.10;;;1.37;;
16254;SDS011;8235;52.198;9.904;2022-09-17T11:32:45;4.57;;;1.10;;
16254;SDS011;8235;52.198;9.904;2022-09-17T11:35:34;4.50;;;1.03;;
16254;SDS011;8235;52.198;9.904;2022-09-17T11:38:05;7.33;;;1.10;;
16254;SDS011;8235;52.198;9.904;2022-09-17T11:40:36;4.10;;;1.20;;
16254;SDS011;8235;52.198;9.904;2022-09-17T11:43:09;5.93;;;1.40;;
16254;SDS011;8235;52.198;9.904;2022-09-17T11:45:44;4.90;;;1.37;;
16254;SDS011;8235;52.198;9.904;2022-09-17T11:48:19;3.93;;;1.00;;
16254;SDS011;8235;52.198;9.904;2022-09-17T11:50:49;4.43;;;0.97;;
16254;SDS011;8235;52.198;9.904;2022-09-17T11:53:22;5.27;;;0.97;;
16254;SDS011;8235;52.198;9.904;2022-09-17T11:55:54;3.97;;;1.17;;
16254;SDS011;8235;52.198;9.904;2022-09-17T11:58:27;5.93;;;1.43;;
16254;SDS011;8235;52.198;9.904;2022-09-17T12:01:00;6.77;;;1.10;;
16254;SDS011;8235;52.198;9.904;2022-09-17T12:03:31;23.97;;;2.33;;
16254;SDS011;8235;52.198;9.904;2022-09-17T12:06:01;3.93;;;1.07;;
16254;SDS011;8235;52.198;9.904;2022-09-17T12:08:38;4.60;;;1.20;;
16254;SDS011;8235;52.198;9.904;2022-09-17T12:11:10;4.33;;;1.20;;
16254;SDS011;8235;52.198;9.904;2022-09-17T12:13:43;5.50;;;1.30;;
16254;SDS011;8235;52.198;9.904;2022-09-17T12:16:15;6.67;;;1.33;;
16254;SDS011;8235;52.198;9.904;2022-09-17T12:18:48;7.90;;;2.00;;
16254;SDS011;8235;52.198;9.904;2022-09-17T12:21:20;6.23;;;1.00;;
16254;SDS011;8235;52.198;9.904;2022-09-17T12:23:52;6.40;;;1.10;;
16254;SDS011;8235;52.198;9.904;2022-09-17T12:26:25;4.70;;;1.00;;
16254;SDS011;8235;52.198;9.904;2022-09-17T12:29:16;5.27;;;1.27;;
16254;SDS011;8235;52.198;9.904;2022-09-17T12:32:08;5.07;;;1.03;;
16254;SDS011;8235;52.198;9.904;2022-09-17T12:34:51;4.70;;;0.90;;
16254;SDS011;8235;52.198;9.904;2022-09-17T12:37:23;5.53;;;1.00;;
16254;SDS011;8235;52.198;9.904;2022-09-17T12:40:03;6.67;;;0.93;;
16254;SDS011;8235;52.198;9.904;2022-09-17T12:42:40;5.70;;;1.30;;
16254;SDS011;8235;52.198;9.904;2022-09-17T12:45:20;3.13;;;1.00;;
16254;SDS011;8235;52.198;9.904;2022-09-17T12:47:59;4.60;;;1.00;;
16254;SDS011;8235;52.198;9.904;2022-09-17T12:50:36;8.87;;;1.17;;
16254;SDS011;8235;52.198;9.904;2022-09-17T12:53:21;7.00;;;1.33;;
16254;SDS011;8235;52.198;9.904;2022-09-17T12:55:57;11.30;;;1.47;;
16254;SDS011;8235;52.198;9.904;2022-09-17T12:58:32;4.27;;;1.20;;
16254;SDS011;8235;52.198;9.904;2022-09-17T13:01:10;9.00;;;1.20;;
16254;SDS011;8235;52.198;9.904;2022-09-17T13:03:43;3.93;;;0.80;;
16254;SDS011;8235;52.198;9.904;2022-09-17T13:06:31;4.87;;;1.10;;
16254;SDS011;8235;52.198;9.904;2022-09-17T13:12:10;5.30;;;0.80;;
16254;SDS011;8235;52.198;9.904;2022-09-17T13:17:33;3.37;;;0.73;;
16254;SDS011;8235;52.198;9.904;2022-09-17T13:20:10;2.13;;;0.60;;
16254;SDS011;8235;52.198;9.904;2022-09-17T13:22:43;4.03;;;0.60;;
16254;SDS011;8235;52.198;9.904;2022-09-17T13:25:11;1.53;;;0.50;;
16254;SDS011;8235;52.198;9.904;2022-09-17T13:27:43;1.20;;;0.60;;
16254;SDS011;8235;52.198;9.904;2022-09-17T13:30:11;5.20;;;1.10;;
16254;SDS011;8235;52.198;9.904;2022-09-17T13:32:46;2.97;;;0.67;;
16254;SDS011;8235;52.198;9.904;2022-09-17T13:38:16;3.63;;;1.10;;
16254;SDS011;8235;52.198;9.904;2022-09-17T13:40:44;5.37;;;0.80;;
16254;SDS011;8235;52.198;9.904;2022-09-17T13:43:13;3.63;;;0.87;;
16254;SDS011;8235;52.198;9.904;2022-09-17T13:46:04;2.77;;;0.70;;
16254;SDS011;8235;52.198;9.904;2022-09-17T13:48:36;5.73;;;1.10;;
16254;SDS011;8235;52.198;9.904;2022-09-17T13:54:12;3.03;;;0.90;;
16254;SDS011;8235;52.198;9.904;2022-09-17T13:56:42;2.40;;;0.80;;
16254;SDS011;8235;52.198;9.904;2022-09-17T13:59:12;5.73;;;0.97;;
16254;SDS011;8235;52.198;9.904;2022-09-17T14:01:56;5.87;;;1.10;;
16254;SDS011;8235;52.198;9.904;2022-09-17T14:04:34;5.33;;;1.47;;
16254;SDS011;8235;52.198;9.904;2022-09-17T14:07:30;3.57;;;1.00;;
16254;SDS011;8235;52.198;9.904;2022-09-17T14:09:59;5.27;;;1.10;;
16254;SDS011;8235;52.198;9.904;2022-09-17T14:15:58;3.67;;;1.30;;
16254;SDS011;8235;52.198;9.904;2022-09-17T14:18:33;3.80;;;1.30;;
16254;SDS011;8235;52.198;9.904;2022-09-17T14:21:05;4.20;;;0.80;;
16254;SDS011;8235;52.198;9.904;2022-09-17T14:23:41;4.47;;;0.77;;
16254;SDS011;8235;52.198;9.904;2022-09-17T14:26:11;3.03;;;0.90;;
16254;SDS011;8235;52.198;9.904;2022-09-17T14:28:44;2.33;;;1.00;;
16254;SDS011;8235;52.198;9.904;2022-09-17T14:31:19;1.73;;;0.67;;
16254;SDS011;8235;52.198;9.904;2022-09-17T14:33:50;2.57;;;0.87;;
16254;SDS011;8235;52.198;9.904;2022-09-17T14:36:17;2.87;;;0.97;;
16254;SDS011;8235;52.198;9.904;2022-09-17T14:38:45;3.57;;;0.80;;
16254;SDS011;8235;52.198;9.904;2022-09-17T14:41:18;4.00;;;1.07;;
16254;SDS011;8235;52.198;9.904;2022-09-17T14:43:48;2.50;;;0.97;;
16254;SDS011;8235;52.198;9.904;2022-09-17T14:46:20;1.70;;;0.70;;
16254;SDS011;8235;52.198;9.904;2022-09-17T14:48:49;3.13;;;0.77;;
16254;SDS011;8235;52.198;9.904;2022-09-17T14:51:26;3.63;;;0.73;;
16254;SDS011;8235;52.198;9.904;2022-09-17T14:54:07;3.60;;;1.03;;
16254;SDS011;8235;52.198;9.904;2022-09-17T14:56:48;3.40;;;1.10;;
16254;SDS011;8235;52.198;9.904;2022-09-17T14:59:19;8.43;;;1.70;;
16254;SDS011;8235;52.198;9.904;2022-09-17T15:01:51;6.10;;;1.77;;
16254;SDS011;8235;52.198;9.904;2022-09-17T15:04:19;2.70;;;1.07;;
16254;SDS011;8235;52.198;9.904;2022-09-17T15:06:47;4.97;;;1.50;;
16254;SDS011;8235;52.198;9.904;2022-09-17T15:09:15;3.83;;;1.43;;
16254;SDS011;8235;52.198;9.904;2022-09-17T15:11:44;5.13;;;1.20;;
16254;SDS011;8235;52.198;9.904;2022-09-17T15:14:14;5.13;;;2.40;;
16254;SDS011;8235;52.198;9.904;2022-09-17T15:16:45;5.03;;;3.57;;
16254;SDS011;8235;52.198;9.904;2022-09-17T15:19:17;7.27;;;2.20;;
16254;SDS011;8235;52.198;9.904;2022-09-17T15:21:47;5.47;;;1.43;;
16254;SDS011;8235;52.198;9.904;2022-09-17T15:24:17;4.40;;;1.00;;
16254;SDS011;8235;52.198;9.904;2022-09-17T15:26:53;3.80;;;0.87;;
16254;SDS011;8235;52.198;9.904;2022-09-17T15:29:24;6.20;;;1.50;;
16254;SDS011;8235;52.198;9.904;2022-09-17T15:31:55;4.53;;;1.33;;
16254;SDS011;8235;52.198;9.904;2022-09-17T15:34:23;5.17;;;1.37;;
16254;SDS011;8235;52.198;9.904;2022-09-17T15:37:02;2.17;;;0.90;;
16254;SDS011;8235;52.198;9.904;2022-09-17T15:39:29;4.63;;;1.00;;
16254;SDS011;8235;52.198;9.904;2022-09-17T15:42:03;2.83;;;0.80;;
16254;SDS011;8235;52.198;9.904;2022-09-17T15:44:30;6.60;;;0.80;;
16254;SDS011;8235;52.198;9.904;2022-09-17T15:50:13;4.80;;;1.00;;
16254;SDS011;8235;52.198;9.904;2022-09-17T15:52:42;5.03;;;1.00;;
16254;SDS011;8235;52.198;9.904;2022-09-17T15:58:16;3.27;;;0.70;;